sensor_id;sensor_type;location;lat;lon;timestamp;temperature;humidity
1461;DHT22;724;49.910;12.530;2022-10-03T00:01:27;7.80;99.90
1461;DHT22;724;49.910;12.530;2022-10-03T00:04:09;7.80;99.90
1461;DHT22;724;49.910;12.530;2022-10-03T00:06:42;7.80;99.90
1461;DHT22;724;49.910;12.530;2022-10-03T00:09:24;7.80;99.90
1461;DHT22;724;49.910;12.530;2022-10-03T00:12:02;7.80;99.90
1461;DHT22;724;49.910;12.530;2022-10-03T00:14:43;7.80;99.90
1461;DHT22;724;49.910;12.530;2022-10-03T00:17:15;7.80;99.90
1461;DHT22;724;49.910;12.530;2022-10-03T00:19:52;7.80;99.90
1461;DHT22;724;49.910;12.530;2022-10-03T00:22:30;7.90;99.90
1461;DHT22;724;49.910;12.530;2022-10-03T00:28:15;7.90;99.90
1461;DHT22;724;49.910;12.530;2022-10-03T00:30:55;8.00;99.90
1461;DHT22;724;49.910;12.530;2022-10-03T00:33:32;8.00;99.90
1461;DHT22;724;49.910;12.530;2022-10-03T00:36:07;8.00;99.90
1461;DHT22;724;49.910;12.530;2022-10-03T00:39:13;8.00;99.90
1461;DHT22;724;49.910;12.530;2022-10-03T00:48:12;7.90;99.90
1461;DHT22;724;49.910;12.530;2022-10-03T00:53:51;7.90;99.90
1461;DHT22;724;49.910;12.530;2022-10-03T00:56:33;7.90;99.90
1461;DHT22;724;49.910;12.530;2022-10-03T00:59:27;7.90;99.90
1461;DHT22;724;49.910;12.530;2022-10-03T01:01:56;7.90;99.90
1461;DHT22;724;49.910;12.530;2022-10-03T01:04:43;7.90;99.90
1461;DHT22;724;49.910;12.530;2022-10-03T01:07:29;7.90;99.90
1461;DHT22;724;49.910;12.530;2022-10-03T01:10:06;7.90;99.90
1461;DHT22;724;49.910;12.530;2022-10-03T01:12:51;7.90;99.90
1461;DHT22;724;49.910;12.530;2022-10-03T01:15:29;7.80;99.90
1461;DHT22;724;49.910;12.530;2022-10-03T01:18:12;7.80;99.90
1461;DHT22;724;49.910;12.530;2022-10-03T01:20:51;7.90;99.90
1461;DHT22;724;49.910;12.530;2022-10-03T01:23:55;7.80;99.90
1461;DHT22;724;49.910;12.530;2022-10-03T01:27:00;7.80;99.90
1461;DHT22;724;49.910;12.530;2022-10-03T01:29:43;7.90;99.90
1461;DHT22;724;49.910;12.530;2022-10-03T01:32:32;7.90;99.90
1461;DHT22;724;49.910;12.530;2022-10-03T01:35:10;7.90;99.90
1461;DHT22;724;49.910;12.530;2022-10-03T01:37:47;7.90;99.90
1461;DHT22;724;49.910;12.530;2022-10-03T01:40:24;7.80;99.90
1461;DHT22;724;49.910;12.530;2022-10-03T01:43:00;7.90;99.90
1461;DHT22;724;49.910;12.530;2022-10-03T01:45:36;7.90;99.90
1461;DHT22;724;49.910;12.530;2022-10-03T01:48:13;7.80;99.90
1461;DHT22;724;49.910;12.530;2022-10-03T01:50:50;7.80;99.90
1461;DHT22;724;49.910;12.530;2022-10-03T01:53:25;7.70;99.90
1461;DHT22;724;49.910;12.530;2022-10-03T01:55:59;7.70;99.90
1461;DHT22;724;49.910;12.530;2022-10-03T01:58:36;7.70;99.90
1461;DHT22;724;49.910;12.530;2022-10-03T02:01:10;7.70;99.90
1461;DHT22;724;49.910;12.530;2022-10-03T02:03:44;7.80;99.90
1461;DHT22;724;49.910;12.530;2022-10-03T02:06:20;7.70;99.90
1461;DHT22;724;49.910;12.530;2022-10-03T02:08:55;7.80;99.90
1461;DHT22;724;49.910;12.530;2022-10-03T02:11:31;7.80;99.90
1461;DHT22;724;49.910;12.530;2022-10-03T02:14:12;7.80;99.90
1461;DHT22;724;49.910;12.530;2022-10-03T02:16:50;7.80;99.90
1461;DHT22;724;49.910;12.530;2022-10-03T02:19:23;7.80;99.90
1461;DHT22;724;49.910;12.530;2022-10-03T02:21:52;7.80;99.90
1461;DHT22;724;49.910;12.530;2022-10-03T02:24:28;7.80;99.90
1461;DHT22;724;49.910;12.530;2022-10-03T02:27:29;7.80;99.90
1461;DHT22;724;49.910;12.530;2022-10-03T02:30:18;7.80;99.90
1461;DHT22;724;49.910;12.530;2022-10-03T02:33:28;7.80;99.90
1461;DHT22;724;49.910;12.530;2022-10-03T02:42:30;7.70;99.90
1461;DHT22;724;49.910;12.530;2022-10-03T03:00:18;7.70;99.90
1461;DHT22;724;49.910;12.530;2022-10-03T03:03:12;7.80;99.90
1461;DHT22;724;49.910;12.530;2022-10-03T03:08:54;7.80;99.90
1461;DHT22;724;49.910;12.530;2022-10-03T03:15:06;7.70;99.90
1461;DHT22;724;49.910;12.530;2022-10-03T03:17:38;7.80;99.90
1461;DHT22;724;49.910;12.530;2022-10-03T03:20:24;7.80;99.90
1461;DHT22;724;49.910;12.530;2022-10-03T03:23:16;7.80;99.90
1461;DHT22;724;49.910;12.530;2022-10-03T03:26:12;7.70;99.90
1461;DHT22;724;49.910;12.530;2022-10-03T03:28:47;7.80;99.90
1461;DHT22;724;49.910;12.530;2022-10-03T03:31:16;7.80;99.90
1461;DHT22;724;49.910;12.530;2022-10-03T03:33:56;7.70;99.90
1461;DHT22;724;49.910;12.530;2022-10-03T03:36:31;7.70;99.90
1461;DHT22;724;49.910;12.530;2022-10-03T03:39:10;7.70;99.90
1461;DHT22;724;49.910;12.530;2022-10-03T03:42:02;7.70;99.90
1461;DHT22;724;49.910;12.530;2022-10-03T03:45:07;7.70;99.90
1461;DHT22;724;49.910;12.530;2022-10-03T03:48:06;7.70;99.90
1461;DHT22;724;49.910;12.530;2022-10-03T03:50:45;7.70;99.90
1461;DHT22;724;49.910;12.530;2022-10-03T03:53:29;7.70;99.90
1461;DHT22;724;49.910;12.530;2022-10-03T03:56:07;7.70;99.90
1461;DHT22;724;49.910;12.530;2022-10-03T03:58:45;7.70;99.90
1461;DHT22;724;49.910;12.530;2022-10-03T04:01:40;7.70;99.90
1461;DHT22;724;49.910;12.530;2022-10-03T04:04:18;7.70;99.90
1461;DHT22;724;49.910;12.530;2022-10-03T04:06:55;7.70;99.90
1461;DHT22;724;49.910;12.530;2022-10-03T04:12:33;7.70;99.90
1461;DHT22;724;49.910;12.530;2022-10-03T04:15:20;7.70;99.90
1461;DHT22;724;49.910;12.530;2022-10-03T04:18:01;7.70;99.90
1461;DHT22;724;49.910;12.530;2022-10-03T04:21:04;7.60;99.90
1461;DHT22;724;49.910;12.530;2022-10-03T04:23:47;7.60;99.90
1461;DHT22;724;49.910;12.530;2022-10-03T04:26:28;7.60;99.90
1461;DHT22;724;49.910;12.530;2022-10-03T04:29:17;7.60;99.90
1461;DHT22;724;49.910;12.530;2022-10-03T04:31:51;7.60;99.90
1461;DHT22;724;49.910;12.530;2022-10-03T04:34:33;7.50;99.90
1461;DHT22;724;49.910;12.530;2022-10-03T04:37:20;7.60;99.90
1461;DHT22;724;49.910;12.530;2022-10-03T04:39:55;7.60;99.90
1461;DHT22;724;49.910;12.530;2022-10-03T04:42:35;7.50;31.10
1461;DHT22;724;49.910;12.530;2022-10-03T04:45:29;7.50;1.00
1461;DHT22;724;49.910;12.530;2022-10-03T04:48:10;7.50;1.00
1461;DHT22;724;49.910;12.530;2022-10-03T04:50:47;7.50;1.00
1461;DHT22;724;49.910;12.530;2022-10-03T04:53:32;7.50;1.00
1461;DHT22;724;49.910;12.530;2022-10-03T04:56:19;7.50;1.00
1461;DHT22;724;49.910;12.530;2022-10-03T04:58:53;7.50;1.00
1461;DHT22;724;49.910;12.530;2022-10-03T05:01:24;7.50;1.00
1461;DHT22;724;49.910;12.530;2022-10-03T05:04:06;7.50;1.00
1461;DHT22;724;49.910;12.530;2022-10-03T05:06:44;7.50;1.00
1461;DHT22;724;49.910;12.530;2022-10-03T05:09:21;7.50;1.00
1461;DHT22;724;49.910;12.530;2022-10-03T05:11:57;7.50;1.00
1461;DHT22;724;49.910;12.530;2022-10-03T05:14:37;7.50;1.00
1461;DHT22;724;49.910;12.530;2022-10-03T05:17:14;7.50;3.20
1461;DHT22;724;49.910;12.530;2022-10-03T05:19:59;7.50;39.40
1461;DHT22;724;49.910;12.530;2022-10-03T05:22:38;7.50;67.90
1461;DHT22;724;49.910;12.530;2022-10-03T05:28:04;7.50;25.70
1461;DHT22;724;49.910;12.530;2022-10-03T05:30:40;7.50;9.80
1461;DHT22;724;49.910;12.530;2022-10-03T05:33:18;7.50;20.40
1461;DHT22;724;49.910;12.530;2022-10-03T05:36:05;7.50;36.10
1461;DHT22;724;49.910;12.530;2022-10-03T05:39:15;7.50;78.30
1461;DHT22;724;49.910;12.530;2022-10-03T05:41:51;7.50;97.10
1461;DHT22;724;49.910;12.530;2022-10-03T05:44:25;7.50;99.90
1461;DHT22;724;49.910;12.530;2022-10-03T05:46:58;7.50;99.90
1461;DHT22;724;49.910;12.530;2022-10-03T05:49:47;7.50;99.90
1461;DHT22;724;49.910;12.530;2022-10-03T05:52:35;7.60;45.50
1461;DHT22;724;49.910;12.530;2022-10-03T05:55:27;7.60;14.30
1461;DHT22;724;49.910;12.530;2022-10-03T05:58:23;7.70;1.00
1461;DHT22;724;49.910;12.530;2022-10-03T06:01:20;7.70;1.00
1461;DHT22;724;49.910;12.530;2022-10-03T06:04:19;7.60;1.00
1461;DHT22;724;49.910;12.530;2022-10-03T06:06:59;7.60;1.00
1461;DHT22;724;49.910;12.530;2022-10-03T06:12:37;7.60;1.00
1461;DHT22;724;49.910;12.530;2022-10-03T06:15:27;7.60;1.00
1461;DHT22;724;49.910;12.530;2022-10-03T06:18:15;7.70;1.00
1461;DHT22;724;49.910;12.530;2022-10-03T06:21:07;7.70;1.00
1461;DHT22;724;49.910;12.530;2022-10-03T06:24:02;7.80;1.00
1461;DHT22;724;49.910;12.530;2022-10-03T06:26:59;7.70;1.00
1461;DHT22;724;49.910;12.530;2022-10-03T06:30:10;7.70;14.60
1461;DHT22;724;49.910;12.530;2022-10-03T06:35:55;7.70;83.90
1461;DHT22;724;49.910;12.530;2022-10-03T06:38:51;7.70;90.20
1461;DHT22;724;49.910;12.530;2022-10-03T06:42:11;7.80;72.20
1461;DHT22;724;49.910;12.530;2022-10-03T06:48:18;7.70;63.30
1461;DHT22;724;49.910;12.530;2022-10-03T06:54:00;7.70;99.90
1461;DHT22;724;49.910;12.530;2022-10-03T06:56:52;7.80;99.90
1461;DHT22;724;49.910;12.530;2022-10-03T07:00:02;7.80;99.90
1461;DHT22;724;49.910;12.530;2022-10-03T07:05:59;7.80;68.70
1461;DHT22;724;49.910;12.530;2022-10-03T07:09:04;7.90;55.60
1461;DHT22;724;49.910;12.530;2022-10-03T07:12:05;7.80;1.00
1461;DHT22;724;49.910;12.530;2022-10-03T07:15:19;7.90;1.00
1461;DHT22;724;49.910;12.530;2022-10-03T07:24:26;7.90;1.00
1461;DHT22;724;49.910;12.530;2022-10-03T07:27:08;8.00;1.00
1461;DHT22;724;49.910;12.530;2022-10-03T07:35:44;8.10;1.00
1461;DHT22;724;49.910;12.530;2022-10-03T07:39:04;8.20;1.00
1461;DHT22;724;49.910;12.530;2022-10-03T07:41:49;8.20;1.00
1461;DHT22;724;49.910;12.530;2022-10-03T07:44:41;8.20;1.00
1461;DHT22;724;49.910;12.530;2022-10-03T07:47:51;8.10;1.00
1461;DHT22;724;49.910;12.530;2022-10-03T07:53:59;8.40;1.00
1461;DHT22;724;49.910;12.530;2022-10-03T07:56:44;8.40;99.90
1461;DHT22;724;49.910;12.530;2022-10-03T07:59:58;8.50;29.70
1461;DHT22;724;49.910;12.530;2022-10-03T08:02:56;8.50;1.00
1461;DHT22;724;49.910;12.530;2022-10-03T08:05:45;8.50;24.60
1461;DHT22;724;49.910;12.530;2022-10-03T08:08:35;8.50;99.90
1461;DHT22;724;49.910;12.530;2022-10-03T08:11:24;8.50;99.90
1461;DHT22;724;49.910;12.530;2022-10-03T08:14:15;8.60;99.90
1461;DHT22;724;49.910;12.530;2022-10-03T08:16:57;8.50;99.90
1461;DHT22;724;49.910;12.530;2022-10-03T08:19:47;8.50;99.90
1461;DHT22;724;49.910;12.530;2022-10-03T08:22:30;8.60;93.90
1461;DHT22;724;49.910;12.530;2022-10-03T08:25:25;8.60;1.00
1461;DHT22;724;49.910;12.530;2022-10-03T08:34:27;8.60;1.00
1461;DHT22;724;49.910;12.530;2022-10-03T08:46:56;9.00;1.00
1461;DHT22;724;49.910;12.530;2022-10-03T08:49:56;9.00;99.90
1461;DHT22;724;49.910;12.530;2022-10-03T08:52:33;9.20;1.00
1461;DHT22;724;49.910;12.530;2022-10-03T08:55:46;9.30;1.00
1461;DHT22;724;49.910;12.530;2022-10-03T09:01:25;9.30;99.90
1461;DHT22;724;49.910;12.530;2022-10-03T09:04:22;9.20;1.00
1461;DHT22;724;49.910;12.530;2022-10-03T09:07:11;9.10;1.00
1461;DHT22;724;49.910;12.530;2022-10-03T09:10:05;8.90;99.90
1461;DHT22;724;49.910;12.530;2022-10-03T09:15:54;8.70;99.90
1461;DHT22;724;49.910;12.530;2022-10-03T09:18:46;8.90;99.90
1461;DHT22;724;49.910;12.530;2022-10-03T09:21:43;9.10;70.20
1461;DHT22;724;49.910;12.530;2022-10-03T09:24:42;9.30;1.00
1461;DHT22;724;49.910;12.530;2022-10-03T09:30:39;9.30;99.90
1461;DHT22;724;49.910;12.530;2022-10-03T09:33:33;9.20;99.90
1461;DHT22;724;49.910;12.530;2022-10-03T09:42:17;9.30;99.90
1461;DHT22;724;49.910;12.530;2022-10-03T09:48:25;9.20;1.00
1461;DHT22;724;49.910;12.530;2022-10-03T09:54:36;9.00;1.00
1461;DHT22;724;49.910;12.530;2022-10-03T09:57:37;8.90;1.00
1461;DHT22;724;49.910;12.530;2022-10-03T10:00:23;9.00;1.00
1461;DHT22;724;49.910;12.530;2022-10-03T10:06:13;9.20;1.00
1461;DHT22;724;49.910;12.530;2022-10-03T10:09:16;9.20;1.00
1461;DHT22;724;49.910;12.530;2022-10-03T10:12:06;9.30;1.00
1461;DHT22;724;49.910;12.530;2022-10-03T10:14:54;9.40;99.90
1461;DHT22;724;49.910;12.530;2022-10-03T10:18:00;9.00;1.00
1461;DHT22;724;49.910;12.530;2022-10-03T10:23:47;9.30;99.90
1461;DHT22;724;49.910;12.530;2022-10-03T10:26:44;9.60;99.90
1461;DHT22;724;49.910;12.530;2022-10-03T10:29:30;10.00;1.00
1461;DHT22;724;49.910;12.530;2022-10-03T10:35:37;10.50;99.90
1461;DHT22;724;49.910;12.530;2022-10-03T10:38:37;12.30;99.90
1461;DHT22;724;49.910;12.530;2022-10-03T10:48:07;10.40;1.00
1461;DHT22;724;49.910;12.530;2022-10-03T10:57:14;10.70;1.00
1461;DHT22;724;49.910;12.530;2022-10-03T11:00:13;10.60;1.00
1461;DHT22;724;49.910;12.530;2022-10-03T11:09:26;10.00;99.90
1461;DHT22;724;49.910;12.530;2022-10-03T11:15:30;10.20;1.00
1461;DHT22;724;49.910;12.530;2022-10-03T11:22:05;10.30;27.20
1461;DHT22;724;49.910;12.530;2022-10-03T11:28:21;10.60;1.00
1461;DHT22;724;49.910;12.530;2022-10-03T11:31:25;10.90;1.00
1461;DHT22;724;49.910;12.530;2022-10-03T11:34:39;11.40;1.00
1461;DHT22;724;49.910;12.530;2022-10-03T11:37:22;11.40;99.90
1461;DHT22;724;49.910;12.530;2022-10-03T11:39:58;11.40;99.90
1461;DHT22;724;49.910;12.530;2022-10-03T11:42:44;11.50;99.90
1461;DHT22;724;49.910;12.530;2022-10-03T11:45:23;11.10;99.90
1461;DHT22;724;49.910;12.530;2022-10-03T11:47:56;11.50;99.90
1461;DHT22;724;49.910;12.530;2022-10-03T11:50:44;11.80;49.00
1461;DHT22;724;49.910;12.530;2022-10-03T11:53:25;11.70;10.70
1461;DHT22;724;49.910;12.530;2022-10-03T11:56:08;11.50;4.50
1461;DHT22;724;49.910;12.530;2022-10-03T11:58:50;11.30;43.30
1461;DHT22;724;49.910;12.530;2022-10-03T12:01:32;11.10;1.00
1461;DHT22;724;49.910;12.530;2022-10-03T12:04:09;11.10;45.70
1461;DHT22;724;49.910;12.530;2022-10-03T12:06:57;11.30;80.20
1461;DHT22;724;49.910;12.530;2022-10-03T12:09:58;11.60;46.60
1461;DHT22;724;49.910;12.530;2022-10-03T12:12:33;11.60;1.00
1461;DHT22;724;49.910;12.530;2022-10-03T12:15:16;11.40;1.00
1461;DHT22;724;49.910;12.530;2022-10-03T12:17:51;11.40;1.00
1461;DHT22;724;49.910;12.530;2022-10-03T12:20:23;11.30;1.00
1461;DHT22;724;49.910;12.530;2022-10-03T12:22:54;11.40;1.00
1461;DHT22;724;49.910;12.530;2022-10-03T12:25:25;11.50;1.00
1461;DHT22;724;49.910;12.530;2022-10-03T12:28:03;11.60;1.00
1461;DHT22;724;49.910;12.530;2022-10-03T12:30:44;11.60;1.00
1461;DHT22;724;49.910;12.530;2022-10-03T12:33:34;11.60;1.00
1461;DHT22;724;49.910;12.530;2022-10-03T12:36:09;11.50;1.00
1461;DHT22;724;49.910;12.530;2022-10-03T12:38:54;11.90;1.00
1461;DHT22;724;49.910;12.530;2022-10-03T12:41:30;12.10;1.00
1461;DHT22;724;49.910;12.530;2022-10-03T12:44:12;12.10;1.00
1461;DHT22;724;49.910;12.530;2022-10-03T12:46:48;12.20;1.00
1461;DHT22;724;49.910;12.530;2022-10-03T12:49:23;12.10;1.00
1461;DHT22;724;49.910;12.530;2022-10-03T12:51:55;12.10;1.00
1461;DHT22;724;49.910;12.530;2022-10-03T12:54:38;12.00;1.00
1461;DHT22;724;49.910;12.530;2022-10-03T13:00:15;12.20;1.00
1461;DHT22;724;49.910;12.530;2022-10-03T13:02:54;12.10;1.00
1461;DHT22;724;49.910;12.530;2022-10-03T13:05:35;11.70;1.00
1461;DHT22;724;49.910;12.530;2022-10-03T13:08:17;11.90;1.00
1461;DHT22;724;49.910;12.530;2022-10-03T13:10:50;11.70;1.00
1461;DHT22;724;49.910;12.530;2022-10-03T13:13:26;11.40;1.00
1461;DHT22;724;49.910;12.530;2022-10-03T13:16:17;11.30;1.00
1461;DHT22;724;49.910;12.530;2022-10-03T13:18:51;11.40;1.00
1461;DHT22;724;49.910;12.530;2022-10-03T13:21:24;11.50;1.00
1461;DHT22;724;49.910;12.530;2022-10-03T13:23:57;11.50;1.00
1461;DHT22;724;49.910;12.530;2022-10-03T13:26:30;11.50;1.00
1461;DHT22;724;49.910;12.530;2022-10-03T13:29:18;11.50;1.00
1461;DHT22;724;49.910;12.530;2022-10-03T13:32:11;11.50;1.00
1461;DHT22;724;49.910;12.530;2022-10-03T13:38:15;11.50;1.00
1461;DHT22;724;49.910;12.530;2022-10-03T13:40:50;11.70;1.00
1461;DHT22;724;49.910;12.530;2022-10-03T13:43:23;11.60;1.00
1461;DHT22;724;49.910;12.530;2022-10-03T13:45:52;11.60;1.00
1461;DHT22;724;49.910;12.530;2022-10-03T13:48:22;11.80;1.00
1461;DHT22;724;49.910;12.530;2022-10-03T13:50:55;11.70;1.00
1461;DHT22;724;49.910;12.530;2022-10-03T13:53:52;11.70;1.00
1461;DHT22;724;49.910;12.530;2022-10-03T13:56:34;11.50;1.00
1461;DHT22;724;49.910;12.530;2022-10-03T13:59:12;11.40;1.00
1461;DHT22;724;49.910;12.530;2022-10-03T14:01:47;11.10;1.00
1461;DHT22;724;49.910;12.530;2022-10-03T14:04:33;11.10;1.00
1461;DHT22;724;49.910;12.530;2022-10-03T14:07:09;11.00;1.00
1461;DHT22;724;49.910;12.530;2022-10-03T14:09:51;10.90;1.00
1461;DHT22;724;49.910;12.530;2022-10-03T14:12:30;10.90;1.00
1461;DHT22;724;49.910;12.530;2022-10-03T14:15:19;10.80;1.00
1461;DHT22;724;49.910;12.530;2022-10-03T14:17:55;10.80;1.00
1461;DHT22;724;49.910;12.530;2022-10-03T14:20:28;10.80;1.00
1461;DHT22;724;49.910;12.530;2022-10-03T14:23:14;10.90;1.00
1461;DHT22;724;49.910;12.530;2022-10-03T14:25:50;11.00;1.00
1461;DHT22;724;49.910;12.530;2022-10-03T14:28:21;11.10;1.00
1461;DHT22;724;49.910;12.530;2022-10-03T14:31:01;11.20;1.00
1461;DHT22;724;49.910;12.530;2022-10-03T14:33:37;11.30;1.00
1461;DHT22;724;49.910;12.530;2022-10-03T14:36:20;11.30;1.00
1461;DHT22;724;49.910;12.530;2022-10-03T14:39:01;11.30;1.00
1461;DHT22;724;49.910;12.530;2022-10-03T14:41:47;11.30;1.00
1461;DHT22;724;49.910;12.530;2022-10-03T14:44:18;11.40;1.00
1461;DHT22;724;49.910;12.530;2022-10-03T14:46:49;11.20;1.00
1461;DHT22;724;49.910;12.530;2022-10-03T14:49:22;11.20;1.00
1461;DHT22;724;49.910;12.530;2022-10-03T14:51:55;11.30;1.00
1461;DHT22;724;49.910;12.530;2022-10-03T14:54:26;11.10;1.00
1461;DHT22;724;49.910;12.530;2022-10-03T14:56:56;11.10;1.00
1461;DHT22;724;49.910;12.530;2022-10-03T14:59:26;11.10;1.00
1461;DHT22;724;49.910;12.530;2022-10-03T15:01:56;11.00;1.00
1461;DHT22;724;49.910;12.530;2022-10-03T15:04:27;11.00;1.00
1461;DHT22;724;49.910;12.530;2022-10-03T15:06:57;11.10;1.00
1461;DHT22;724;49.910;12.530;2022-10-03T15:09:30;11.00;1.00
1461;DHT22;724;49.910;12.530;2022-10-03T15:12:03;10.90;1.00
1461;DHT22;724;49.910;12.530;2022-10-03T15:14:34;10.80;1.00
1461;DHT22;724;49.910;12.530;2022-10-03T15:17:04;10.80;1.00
1461;DHT22;724;49.910;12.530;2022-10-03T15:19:36;10.70;1.00
1461;DHT22;724;49.910;12.530;2022-10-03T15:22:25;10.70;1.00
1461;DHT22;724;49.910;12.530;2022-10-03T15:24:56;10.70;1.00
1461;DHT22;724;49.910;12.530;2022-10-03T15:27:25;10.60;1.00
1461;DHT22;724;49.910;12.530;2022-10-03T15:29:55;10.50;1.00
1461;DHT22;724;49.910;12.530;2022-10-03T15:32:25;10.60;1.00
1461;DHT22;724;49.910;12.530;2022-10-03T15:34:57;10.50;1.00
1461;DHT22;724;49.910;12.530;2022-10-03T15:37:27;10.40;1.00
1461;DHT22;724;49.910;12.530;2022-10-03T15:39:59;10.30;1.00
1461;DHT22;724;49.910;12.530;2022-10-03T15:42:30;10.40;1.00
1461;DHT22;724;49.910;12.530;2022-10-03T15:45:00;10.40;1.00
1461;DHT22;724;49.910;12.530;2022-10-03T15:47:31;10.30;49.50
1461;DHT22;724;49.910;12.530;2022-10-03T15:50:01;10.30;1.00
1461;DHT22;724;49.910;12.530;2022-10-03T15:52:36;10.30;1.00
1461;DHT22;724;49.910;12.530;2022-10-03T15:55:06;10.30;28.20
1461;DHT22;724;49.910;12.530;2022-10-03T15:57:44;10.20;58.10
1461;DHT22;724;49.910;12.530;2022-10-03T16:00:19;10.20;99.90
1461;DHT22;724;49.910;12.530;2022-10-03T16:02:49;10.10;99.90
1461;DHT22;724;49.910;12.530;2022-10-03T16:05:21;10.10;99.90
1461;DHT22;724;49.910;12.530;2022-10-03T16:07:55;10.10;99.90
1461;DHT22;724;49.910;12.530;2022-10-03T16:10:28;10.10;99.90
1461;DHT22;724;49.910;12.530;2022-10-03T16:13:00;10.10;99.90
1461;DHT22;724;49.910;12.530;2022-10-03T16:15:52;10.10;99.90
1461;DHT22;724;49.910;12.530;2022-10-03T16:18:47;10.10;99.90
1461;DHT22;724;49.910;12.530;2022-10-03T16:21:28;10.00;99.90
1461;DHT22;724;49.910;12.530;2022-10-03T16:23:57;10.00;99.90
1461;DHT22;724;49.910;12.530;2022-10-03T16:26:28;10.00;99.90
1461;DHT22;724;49.910;12.530;2022-10-03T16:29:06;10.00;99.90
1461;DHT22;724;49.910;12.530;2022-10-03T16:31:38;10.00;99.90
1461;DHT22;724;49.910;12.530;2022-10-03T16:34:11;9.90;99.90
1461;DHT22;724;49.910;12.530;2022-10-03T16:36:41;9.90;1.00
1461;DHT22;724;49.910;12.530;2022-10-03T16:39:17;9.90;1.00
1461;DHT22;724;49.910;12.530;2022-10-03T16:41:46;9.80;1.00
1461;DHT22;724;49.910;12.530;2022-10-03T16:44:23;9.80;1.00
1461;DHT22;724;49.910;12.530;2022-10-03T16:46:53;9.70;1.00
1461;DHT22;724;49.910;12.530;2022-10-03T16:49:35;9.80;1.00
1461;DHT22;724;49.910;12.530;2022-10-03T16:52:24;9.80;1.00
1461;DHT22;724;49.910;12.530;2022-10-03T16:55:00;9.60;1.00
1461;DHT22;724;49.910;12.530;2022-10-03T16:57:31;9.60;1.00
1461;DHT22;724;49.910;12.530;2022-10-03T17:00:15;9.60;1.00
1461;DHT22;724;49.910;12.530;2022-10-03T17:02:44;9.50;1.00
1461;DHT22;724;49.910;12.530;2022-10-03T17:05:12;9.50;1.00
1461;DHT22;724;49.910;12.530;2022-10-03T17:07:41;9.50;1.00
1461;DHT22;724;49.910;12.530;2022-10-03T17:10:27;9.50;1.00
1461;DHT22;724;49.910;12.530;2022-10-03T17:12:56;9.50;1.00
1461;DHT22;724;49.910;12.530;2022-10-03T17:15:29;9.50;1.00
1461;DHT22;724;49.910;12.530;2022-10-03T17:18:02;9.50;1.00
1461;DHT22;724;49.910;12.530;2022-10-03T17:20:38;9.50;1.00
1461;DHT22;724;49.910;12.530;2022-10-03T17:23:11;9.50;1.00
1461;DHT22;724;49.910;12.530;2022-10-03T17:25:48;9.40;92.50
1461;DHT22;724;49.910;12.530;2022-10-03T17:28:33;9.30;99.90
1461;DHT22;724;49.910;12.530;2022-10-03T17:31:04;9.30;99.90
1461;DHT22;724;49.910;12.530;2022-10-03T17:33:39;9.40;99.90
1461;DHT22;724;49.910;12.530;2022-10-03T17:36:44;9.40;99.90
1461;DHT22;724;49.910;12.530;2022-10-03T17:39:23;9.30;99.90
1461;DHT22;724;49.910;12.530;2022-10-03T17:41:58;9.20;99.90
1461;DHT22;724;49.910;12.530;2022-10-03T17:44:34;9.20;1.00
1461;DHT22;724;49.910;12.530;2022-10-03T17:47:08;9.20;1.00
1461;DHT22;724;49.910;12.530;2022-10-03T17:49:44;9.10;1.00
1461;DHT22;724;49.910;12.530;2022-10-03T17:52:16;9.10;1.00
1461;DHT22;724;49.910;12.530;2022-10-03T17:54:46;9.10;1.00
1461;DHT22;724;49.910;12.530;2022-10-03T17:57:19;9.20;1.00
1461;DHT22;724;49.910;12.530;2022-10-03T17:59:55;9.20;1.00
1461;DHT22;724;49.910;12.530;2022-10-03T18:02:32;9.20;1.00
1461;DHT22;724;49.910;12.530;2022-10-03T18:05:07;9.10;1.00
1461;DHT22;724;49.910;12.530;2022-10-03T18:07:37;9.20;1.00
1461;DHT22;724;49.910;12.530;2022-10-03T18:10:06;9.20;1.00
1461;DHT22;724;49.910;12.530;2022-10-03T18:12:42;9.20;1.00
1461;DHT22;724;49.910;12.530;2022-10-03T18:15:35;9.20;1.00
1461;DHT22;724;49.910;12.530;2022-10-03T18:18:30;9.20;1.00
1461;DHT22;724;49.910;12.530;2022-10-03T18:21:06;9.10;1.00
1461;DHT22;724;49.910;12.530;2022-10-03T18:23:42;9.00;1.00
1461;DHT22;724;49.910;12.530;2022-10-03T18:26:22;9.00;1.00
1461;DHT22;724;49.910;12.530;2022-10-03T18:28:58;8.90;1.00
1461;DHT22;724;49.910;12.530;2022-10-03T18:31:27;8.80;1.00
1461;DHT22;724;49.910;12.530;2022-10-03T18:34:02;8.80;1.00
1461;DHT22;724;49.910;12.530;2022-10-03T18:36:37;8.70;1.00
1461;DHT22;724;49.910;12.530;2022-10-03T18:39:08;8.70;1.00
1461;DHT22;724;49.910;12.530;2022-10-03T18:41:42;8.70;1.00
1461;DHT22;724;49.910;12.530;2022-10-03T18:44:13;8.70;1.00
1461;DHT22;724;49.910;12.530;2022-10-03T18:46:42;8.70;62.40
1461;DHT22;724;49.910;12.530;2022-10-03T18:49:18;8.70;95.60
1461;DHT22;724;49.910;12.530;2022-10-03T18:51:51;8.70;99.90
1461;DHT22;724;49.910;12.530;2022-10-03T18:54:33;8.70;99.90
1461;DHT22;724;49.910;12.530;2022-10-03T18:57:04;8.80;99.90
1461;DHT22;724;49.910;12.530;2022-10-03T18:59:37;8.70;99.90
1461;DHT22;724;49.910;12.530;2022-10-03T19:02:20;8.70;99.90
1461;DHT22;724;49.910;12.530;2022-10-03T19:04:52;8.70;99.90
1461;DHT22;724;49.910;12.530;2022-10-03T19:07:23;8.70;99.90
1461;DHT22;724;49.910;12.530;2022-10-03T19:10:25;8.70;99.90
1461;DHT22;724;49.910;12.530;2022-10-03T19:12:58;8.60;99.90
1461;DHT22;724;49.910;12.530;2022-10-03T19:15:38;8.50;99.90
1461;DHT22;724;49.910;12.530;2022-10-03T19:18:17;8.50;99.90
1461;DHT22;724;49.910;12.530;2022-10-03T19:20:52;8.40;99.90
1461;DHT22;724;49.910;12.530;2022-10-03T19:23:23;8.40;1.00
1461;DHT22;724;49.910;12.530;2022-10-03T19:25:56;8.40;1.00
1461;DHT22;724;49.910;12.530;2022-10-03T19:28:30;8.30;1.00
1461;DHT22;724;49.910;12.530;2022-10-03T19:31:01;8.30;1.00
1461;DHT22;724;49.910;12.530;2022-10-03T19:33:32;8.30;1.00
1461;DHT22;724;49.910;12.530;2022-10-03T19:36:04;8.30;1.00
1461;DHT22;724;49.910;12.530;2022-10-03T19:38:34;8.30;1.00
1461;DHT22;724;49.910;12.530;2022-10-03T19:41:13;8.40;1.00
1461;DHT22;724;49.910;12.530;2022-10-03T19:43:43;8.40;1.00
1461;DHT22;724;49.910;12.530;2022-10-03T19:46:17;8.40;1.00
1461;DHT22;724;49.910;12.530;2022-10-03T19:49:00;8.30;1.00
1461;DHT22;724;49.910;12.530;2022-10-03T19:51:34;8.30;1.00
1461;DHT22;724;49.910;12.530;2022-10-03T19:54:01;8.30;1.00
1461;DHT22;724;49.910;12.530;2022-10-03T19:56:37;8.20;1.00
1461;DHT22;724;49.910;12.530;2022-10-03T19:59:06;8.20;1.00
1461;DHT22;724;49.910;12.530;2022-10-03T20:01:41;8.10;1.00
1461;DHT22;724;49.910;12.530;2022-10-03T20:04:09;8.10;1.00
1461;DHT22;724;49.910;12.530;2022-10-03T20:06:44;8.10;1.00
1461;DHT22;724;49.910;12.530;2022-10-03T20:09:19;8.10;1.00
1461;DHT22;724;49.910;12.530;2022-10-03T20:11:49;8.00;1.00
1461;DHT22;724;49.910;12.530;2022-10-03T20:14:18;8.00;1.00
1461;DHT22;724;49.910;12.530;2022-10-03T20:16:49;8.00;1.00
1461;DHT22;724;49.910;12.530;2022-10-03T20:19:22;8.00;1.00
1461;DHT22;724;49.910;12.530;2022-10-03T20:21:53;8.00;1.00
1461;DHT22;724;49.910;12.530;2022-10-03T20:24:27;8.10;53.20
1461;DHT22;724;49.910;12.530;2022-10-03T20:27:04;8.10;1.00
1461;DHT22;724;49.910;12.530;2022-10-03T20:29:41;8.10;1.00
1461;DHT22;724;49.910;12.530;2022-10-03T20:32:16;8.20;1.00
1461;DHT22;724;49.910;12.530;2022-10-03T20:34:50;8.10;1.00